createdAt,value
2022-12-25T00:00:20.629Z,101028.19
2022-12-25T00:03:06.694Z,101031.53
2022-12-25T00:05:51.999Z,101032.13
2022-12-25T00:08:38.672Z,101035.06
2022-12-25T00:11:23.830Z,101040.91
2022-12-25T00:14:09.109Z,101039.03
2022-12-25T00:16:54.361Z,101033.50
2022-12-25T00:19:39.383Z,101031.47
2022-12-25T00:22:24.585Z,101032.03
2022-12-25T00:25:09.717Z,101033.47
2022-12-25T00:27:54.669Z,101032.75
2022-12-25T00:30:40.938Z,101036.09
2022-12-25T00:33:26.267Z,101033.00
2022-12-25T00:36:12.800Z,101037.03
2022-12-25T00:38:57.881Z,101030.97
2022-12-25T00:42:01.277Z,101028.34
2022-12-25T00:44:48.387Z,101029.13
2022-12-25T00:47:33.426Z,101033.22
2022-12-25T00:50:18.731Z,101041.22
2022-12-25T00:53:03.880Z,101038.72
2022-12-25T00:55:56.727Z,101036.53
2022-12-25T00:58:41.761Z,101031.34
2022-12-25T01:01:27.040Z,101035.88
2022-12-25T01:04:13.017Z,101031.00
2022-12-25T01:06:57.836Z,101038.97
2022-12-25T01:10:02.845Z,101034.94
2022-12-25T01:12:48.992Z,101038.59
2022-12-25T01:15:34.095Z,101049.25
2022-12-25T01:18:20.709Z,101053.72
2022-12-25T01:21:07.361Z,101057.28
2022-12-25T01:23:52.972Z,101059.78
2022-12-25T01:26:37.973Z,101051.78
2022-12-25T01:29:22.845Z,101052.72
2022-12-25T01:32:08.298Z,101044.81
2022-12-25T01:34:56.201Z,101043.88
2022-12-25T01:37:41.231Z,101046.34
2022-12-25T01:40:26.505Z,101044.84
2022-12-25T01:43:31.878Z,101043.59
2022-12-25T01:46:17.070Z,101042.06
2022-12-25T01:49:15.064Z,101056.97
2022-12-25T01:52:10.453Z,101052.97
2022-12-25T01:54:59.323Z,101059.03
2022-12-25T01:57:44.594Z,101065.44
2022-12-25T02:00:29.915Z,101069.88
2022-12-25T02:03:14.788Z,101062.75
2022-12-25T02:06:01.265Z,101062.94
2022-12-25T02:08:46.126Z,101069.50
2022-12-25T02:11:49.867Z,101079.53
2022-12-25T02:14:37.394Z,101069.28
2022-12-25T02:17:41.189Z,101059.00
2022-12-25T02:20:45.455Z,101071.34
2022-12-25T02:24:04.469Z,101055.88
2022-12-25T02:27:17.646Z,101059.22
2022-12-25T02:30:08.440Z,101063.72
2022-12-25T02:33:18.585Z,101062.72
2022-12-25T02:36:09.233Z,101071.91
2022-12-25T02:39:17.058Z,101076.22
2022-12-25T02:42:08.783Z,101068.50
2022-12-25T02:45:12.949Z,101073.19
2022-12-25T02:48:16.719Z,101072.75
2022-12-25T02:51:23.657Z,101072.16
2022-12-25T02:54:31.432Z,101068.41
2022-12-25T02:57:39.077Z,101065.91
2022-12-25T03:00:43.021Z,101071.91
2022-12-25T03:03:51.245Z,101063.03
2022-12-25T03:06:44.053Z,101069.41
2022-12-25T03:09:51.901Z,101069.59
2022-12-25T03:13:01.176Z,101068.97
2022-12-25T03:16:06.074Z,101056.06
2022-12-25T03:18:51.375Z,101055.97
2022-12-25T03:21:54.873Z,101042.41
2022-12-25T03:24:59.832Z,101044.63
2022-12-25T03:27:49.383Z,101048.81
2022-12-25T03:31:04.330Z,101048.00
2022-12-25T03:34:07.743Z,101041.34
2022-12-25T03:37:25.853Z,101022.91
2022-12-25T03:40:53.311Z,101028.78
2022-12-25T03:44:14.742Z,101025.09
2022-12-25T03:47:27.460Z,101018.16
2022-12-25T03:50:38.324Z,101012.53
2022-12-25T03:53:51.267Z,101010.50
2022-12-25T03:56:56.548Z,101012.72
2022-12-25T04:00:00.010Z,101003.09
2022-12-25T04:03:03.988Z,101001.56
2022-12-25T04:06:07.289Z,100994.44
2022-12-25T04:09:11.020Z,101010.94
2022-12-25T04:12:14.550Z,101012.22
2022-12-25T04:15:18.104Z,101004.22
2022-12-25T04:18:22.173Z,101013.13
2022-12-25T04:21:25.767Z,101021.06
2022-12-25T04:24:30.284Z,101018.84
2022-12-25T04:27:33.955Z,101020.38
2022-12-25T04:30:37.813Z,101029.66
2022-12-25T04:33:41.567Z,101027.59
2022-12-25T04:36:26.674Z,101018.16
2022-12-25T04:39:11.827Z,101031.78
2022-12-25T04:41:56.906Z,101025.81
2022-12-25T04:44:41.973Z,101028.19
2022-12-25T04:47:27.178Z,101017.47
2022-12-25T04:50:12.208Z,101020.91
2022-12-25T04:52:57.129Z,101018.94
2022-12-25T04:55:42.733Z,101007.25
2022-12-25T04:58:27.862Z,101008.50
2022-12-25T05:01:14.180Z,101012.94
2022-12-25T05:03:59.294Z,101012.63
2022-12-25T05:06:44.428Z,101011.63
2022-12-25T05:09:29.545Z,101002.53
2022-12-25T05:12:14.648Z,100991.44
2022-12-25T05:14:59.805Z,100983.47
2022-12-25T05:17:44.810Z,100982.16
2022-12-25T05:20:33.362Z,100969.91
2022-12-25T05:23:21.823Z,100967.84
2022-12-25T05:26:07.583Z,100970.75
2022-12-25T05:28:53.435Z,100968.38
2022-12-25T05:31:38.233Z,100980.72
2022-12-25T05:34:23.515Z,100970.59
2022-12-25T05:37:08.569Z,100967.53
2022-12-25T05:39:53.335Z,100962.69
2022-12-25T05:42:38.495Z,100966.31
2022-12-25T05:45:23.601Z,100956.31
2022-12-25T05:48:09.702Z,100943.53
2022-12-25T05:50:54.571Z,100946.56
2022-12-25T05:53:40.767Z,100945.28
2022-12-25T05:56:25.529Z,100949.34
2022-12-25T05:59:10.553Z,100945.19
2022-12-25T06:01:55.701Z,100944.22
2022-12-25T06:04:40.552Z,100938.13
2022-12-25T06:07:25.821Z,100940.28
2022-12-25T06:10:10.848Z,100934.19
2022-12-25T06:12:56.066Z,100935.31
2022-12-25T06:15:42.569Z,100945.06
2022-12-25T06:18:27.449Z,100946.44
2022-12-25T06:21:14.301Z,100939.13
2022-12-25T06:24:00.035Z,100920.53
2022-12-25T06:26:44.952Z,100927.59
2022-12-25T06:29:29.934Z,100919.31
2022-12-25T06:32:14.924Z,100909.16
2022-12-25T06:34:59.860Z,100895.13
2022-12-25T06:37:44.921Z,100890.25
2022-12-25T06:40:30.013Z,100879.59
2022-12-25T06:43:15.144Z,100879.16
2022-12-25T06:46:11.593Z,100871.09
2022-12-25T06:48:57.609Z,100872.91
2022-12-25T06:51:42.481Z,100865.53
2022-12-25T06:54:27.699Z,100854.00
2022-12-25T06:57:12.787Z,100873.84
2022-12-25T06:59:57.789Z,100869.81
2022-12-25T07:02:47.191Z,100861.78
2022-12-25T07:05:32.523Z,100842.63
2022-12-25T07:08:17.688Z,100832.88
2022-12-25T07:11:02.956Z,100845.09
2022-12-25T07:13:48.304Z,100833.16
2022-12-25T07:16:33.221Z,100813.81
2022-12-25T07:19:19.122Z,100831.84
2022-12-25T07:22:04.234Z,100809.50
2022-12-25T07:24:49.215Z,100807.81
2022-12-25T07:27:34.358Z,100807.28
2022-12-25T07:30:19.583Z,100806.25
2022-12-25T07:33:04.873Z,100813.09
2022-12-25T07:35:49.781Z,100816.28
2022-12-25T07:38:35.297Z,100822.25
2022-12-25T07:41:20.457Z,100818.75
2022-12-25T07:44:05.691Z,100826.09
2022-12-25T07:46:50.838Z,100825.28
2022-12-25T07:49:36.015Z,100835.56
2022-12-25T07:52:21.046Z,100833.91
2022-12-25T07:55:06.553Z,100836.38
2022-12-25T07:57:52.217Z,100815.41
2022-12-25T08:00:37.114Z,100807.34
2022-12-25T08:03:22.491Z,100816.09
2022-12-25T08:06:09.713Z,100817.63
2022-12-25T08:08:55.507Z,100822.06
2022-12-25T08:11:46.542Z,100813.28
2022-12-25T08:14:31.782Z,100801.38
2022-12-25T08:17:17.074Z,100806.50
2022-12-25T08:20:02.056Z,100808.91
2022-12-25T08:22:47.257Z,100825.59
2022-12-25T08:25:32.327Z,100830.72
2022-12-25T08:28:17.293Z,100828.22
2022-12-25T08:31:18.581Z,100814.88
2022-12-25T08:34:04.399Z,100797.06
2022-12-25T08:36:49.178Z,100792.63
2022-12-25T08:39:34.209Z,100787.16
2022-12-25T08:42:19.058Z,100798.44
2022-12-25T08:45:04.353Z,100795.50
2022-12-25T08:47:57.302Z,100815.53
2022-12-25T08:50:50.083Z,100818.16
2022-12-25T08:53:34.801Z,100808.44
2022-12-25T08:56:20.191Z,100815.22
2022-12-25T08:59:05.258Z,100799.38
2022-12-25T09:01:50.223Z,100791.13
2022-12-25T09:04:35.292Z,100807.69
2022-12-25T09:07:20.413Z,100803.09
2022-12-25T09:10:06.263Z,100796.00
2022-12-25T09:12:51.494Z,100784.97
2022-12-25T09:15:38.570Z,100780.47
2022-12-25T09:18:23.897Z,100778.38
2022-12-25T09:21:11.516Z,100782.50
2022-12-25T09:23:56.623Z,100788.09
2022-12-25T09:26:41.554Z,100793.69
2022-12-25T09:29:26.700Z,100788.38
2022-12-25T09:32:11.731Z,100785.06
2022-12-25T09:34:56.894Z,100797.16
2022-12-25T09:37:41.929Z,100815.66
2022-12-25T09:40:30.676Z,100817.31
2022-12-25T09:43:19.166Z,100817.47
2022-12-25T09:46:07.598Z,100828.19
2022-12-25T09:49:03.041Z,100835.16
2022-12-25T09:51:53.300Z,100839.59
2022-12-25T09:54:51.617Z,100843.38
2022-12-25T09:57:36.310Z,100856.03
2022-12-25T10:00:24.014Z,100843.41
2022-12-25T10:03:12.038Z,100853.69
2022-12-25T10:06:11.945Z,100843.94
2022-12-25T10:09:10.007Z,100839.63
2022-12-25T10:12:15.069Z,100835.34
2022-12-25T10:15:22.021Z,100835.19
2022-12-25T10:18:17.593Z,100825.44
2022-12-25T10:21:09.316Z,100826.97
2022-12-25T10:23:57.814Z,100823.34
2022-12-25T10:26:43.022Z,100820.00
2022-12-25T10:29:31.625Z,100813.47
2022-12-25T10:32:16.759Z,100796.66
2022-12-25T10:35:01.505Z,100786.88
2022-12-25T10:37:54.987Z,100785.75
2022-12-25T10:41:21.709Z,100778.91
2022-12-25T10:44:14.849Z,100773.75
2022-12-25T10:47:02.085Z,100769.75
2022-12-25T10:49:47.333Z,100754.88
2022-12-25T10:52:32.223Z,100771.09
2022-12-25T10:55:23.556Z,100780.03
2022-12-25T10:58:19.725Z,100784.31
2022-12-25T11:01:07.799Z,100769.16
2022-12-25T11:03:52.702Z,100760.69
2022-12-25T11:06:37.878Z,100745.81
2022-12-25T11:09:23.216Z,100721.06
2022-12-25T11:12:18.849Z,100715.47
2022-12-25T11:15:26.678Z,100705.28
2022-12-25T11:18:35.966Z,100690.25
2022-12-25T11:21:25.703Z,100678.25
2022-12-25T11:24:21.759Z,100671.22
2022-12-25T11:27:06.571Z,100676.66
2022-12-25T11:30:03.959Z,100674.47
2022-12-25T11:32:56.090Z,100655.28
2022-12-25T11:35:52.837Z,100660.66
2022-12-25T11:38:38.707Z,100650.88
2022-12-25T11:41:32.506Z,100635.84
2022-12-25T11:44:43.513Z,100628.28
2022-12-25T11:47:36.367Z,100621.84
2022-12-25T11:50:30.765Z,100617.56
2022-12-25T11:53:20.977Z,100631.75
2022-12-25T11:56:13.995Z,100604.78
2022-12-25T11:59:18.154Z,100602.69
2022-12-25T12:02:29.547Z,100594.44
2022-12-25T12:05:29.100Z,100591.78
2022-12-25T12:08:15.386Z,100588.31
2022-12-25T12:11:18.623Z,100587.88
2022-12-25T12:14:26.716Z,100580.75
2022-12-25T12:17:14.529Z,100593.16
2022-12-25T12:20:13.825Z,100587.03
2022-12-25T12:23:00.266Z,100587.03
2022-12-25T12:25:45.811Z,100583.78
2022-12-25T12:28:44.103Z,100583.91
2022-12-25T12:31:41.623Z,100595.03
2022-12-25T12:34:31.814Z,100591.22
2022-12-25T12:37:32.428Z,100583.66
2022-12-25T12:40:40.631Z,100591.28
2022-12-25T12:43:40.118Z,100596.91
2022-12-25T12:46:31.011Z,100578.09
2022-12-25T12:49:22.412Z,100586.38
2022-12-25T12:52:24.807Z,100575.13
2022-12-25T12:55:14.592Z,100568.84
2022-12-25T12:58:05.268Z,100558.63
2022-12-25T13:01:00.591Z,100552.34
2022-12-25T13:04:10.221Z,100553.00
2022-12-25T13:07:10.117Z,100553.69
2022-12-25T13:10:25.061Z,100553.53
2022-12-25T13:13:17.612Z,100555.19
2022-12-25T13:16:03.332Z,100541.78
2022-12-25T13:18:52.444Z,100537.00
2022-12-25T13:21:37.252Z,100531.72
2022-12-25T13:24:25.808Z,100528.91
2022-12-25T13:27:29.264Z,100533.53
2022-12-25T13:30:18.820Z,100541.34
2022-12-25T13:33:03.909Z,100534.88
2022-12-25T13:35:48.926Z,100529.28
2022-12-25T13:38:34.276Z,100534.41
2022-12-25T13:41:40.964Z,100531.56
2022-12-25T13:44:29.810Z,100543.16
2022-12-25T13:47:18.049Z,100530.78
2022-12-25T13:50:29.885Z,100525.97
2022-12-25T13:53:17.749Z,100528.28
2022-12-25T13:56:03.036Z,100511.78
2022-12-25T13:58:48.475Z,100524.69
2022-12-25T14:01:33.713Z,100528.50
2022-12-25T14:04:21.852Z,100533.28
2022-12-25T14:07:11.713Z,100535.25
2022-12-25T14:10:00.146Z,100545.19
2022-12-25T14:12:49.345Z,100558.72
2022-12-25T14:15:36.315Z,100556.22
2022-12-25T14:18:22.922Z,100546.13
2022-12-25T14:21:15.285Z,100541.19
2022-12-25T14:24:00.624Z,100543.84
2022-12-25T14:26:45.743Z,100549.78
2022-12-25T14:29:38.755Z,100548.81
2022-12-25T14:32:27.354Z,100547.00
2022-12-25T14:35:16.901Z,100545.31
2022-12-25T14:38:06.885Z,100533.56
2022-12-25T14:41:03.997Z,100533.56
2022-12-25T14:43:54.091Z,100531.94
2022-12-25T14:46:39.018Z,100539.34
2022-12-25T14:49:25.382Z,100534.72
2022-12-25T14:52:17.872Z,100520.31
2022-12-25T14:55:07.911Z,100524.47
2022-12-25T14:58:05.196Z,100517.16
2022-12-25T15:00:55.926Z,100527.38
2022-12-25T15:03:40.715Z,100527.88
2022-12-25T15:06:26.048Z,100517.25
2022-12-25T15:09:15.981Z,100518.09
2022-12-25T15:12:00.749Z,100515.13
2022-12-25T15:14:46.104Z,100509.53
2022-12-25T15:17:35.362Z,100512.31
2022-12-25T15:20:24.437Z,100504.56
2022-12-25T15:23:19.813Z,100505.97
2022-12-25T15:26:05.237Z,100514.00
2022-12-25T15:28:50.287Z,100507.22
2022-12-25T15:31:37.895Z,100511.69
2022-12-25T15:34:22.780Z,100504.59
2022-12-25T15:37:07.762Z,100498.78
2022-12-25T15:39:53.644Z,100504.59
2022-12-25T15:42:39.008Z,100510.19
2022-12-25T15:45:28.651Z,100496.00
2022-12-25T15:48:13.406Z,100488.19
2022-12-25T15:50:58.632Z,100482.53
2022-12-25T15:53:43.512Z,100482.72
2022-12-25T15:56:29.522Z,100488.16
2022-12-25T15:59:16.434Z,100500.47
2022-12-25T16:02:01.982Z,100486.13
2022-12-25T16:04:46.982Z,100487.22
2022-12-25T16:07:33.472Z,100492.03
2022-12-25T16:10:20.181Z,100494.91
2022-12-25T16:13:05.240Z,100489.31
2022-12-25T16:15:50.243Z,100484.31
2022-12-25T16:18:35.126Z,100481.63
2022-12-25T16:21:21.752Z,100479.81
2022-12-25T16:24:07.285Z,100477.72
2022-12-25T16:26:52.325Z,100484.31
2022-12-25T16:29:37.254Z,100478.84
2022-12-25T16:32:22.254Z,100484.66
2022-12-25T16:35:08.380Z,100487.75
2022-12-25T16:37:53.397Z,100492.94
2022-12-25T16:40:38.178Z,100489.59
2022-12-25T16:43:24.337Z,100497.94
2022-12-25T16:46:15.201Z,100495.91
2022-12-25T16:49:00.286Z,100491.97
2022-12-25T16:51:45.240Z,100490.03
2022-12-25T16:54:30.022Z,100491.03
2022-12-25T16:57:14.967Z,100494.66
2022-12-25T16:59:59.965Z,100498.66
2022-12-25T17:02:45.009Z,100497.84
2022-12-25T17:05:33.168Z,100507.72
2022-12-25T17:08:17.936Z,100507.97
2022-12-25T17:11:05.001Z,100505.75
2022-12-25T17:13:50.310Z,100495.91
2022-12-25T17:16:37.635Z,100490.00
2022-12-25T17:19:23.776Z,100483.22
2022-12-25T17:22:08.716Z,100457.84
2022-12-25T17:24:53.503Z,100445.53
2022-12-25T17:27:38.657Z,100421.69
2022-12-25T17:30:23.725Z,100410.94
2022-12-25T17:33:08.742Z,100411.91
2022-12-25T17:35:57.347Z,100412.94
2022-12-25T17:38:47.629Z,100409.44
2022-12-25T17:41:33.140Z,100414.78
2022-12-25T17:44:20.968Z,100415.63
2022-12-25T17:47:06.088Z,100417.91
2022-12-25T17:49:51.181Z,100407.97
2022-12-25T17:52:36.397Z,100407.94
2022-12-25T17:55:21.457Z,100406.91
2022-12-25T17:58:06.928Z,100415.75
2022-12-25T18:00:53.492Z,100426.88
2022-12-25T18:03:38.918Z,100425.75
2022-12-25T18:06:25.213Z,100412.56
2022-12-25T18:09:11.408Z,100400.94
2022-12-25T18:11:56.484Z,100390.66
2022-12-25T18:14:41.692Z,100375.00
2022-12-25T18:17:27.075Z,100372.00
2022-12-25T18:20:12.607Z,100377.50
2022-12-25T18:22:57.507Z,100369.44
2022-12-25T18:25:42.829Z,100363.09
2022-12-25T18:28:28.215Z,100367.31
2022-12-25T18:31:16.773Z,100367.88
2022-12-25T18:34:01.931Z,100360.00
2022-12-25T18:36:47.035Z,100363.25
2022-12-25T18:39:33.178Z,100364.50
2022-12-25T18:42:36.745Z,100361.19
2022-12-25T18:45:22.007Z,100377.09
2022-12-25T18:48:07.387Z,100372.94
2022-12-25T18:51:07.033Z,100372.94
2022-12-25T18:53:52.181Z,100383.59
2022-12-25T18:56:37.347Z,100375.13
2022-12-25T18:59:22.325Z,100373.72
2022-12-25T19:02:10.564Z,100376.75
2022-12-25T19:04:55.963Z,100372.56
2022-12-25T19:07:41.262Z,100367.88
2022-12-25T19:10:26.153Z,100367.22
2022-12-25T19:13:11.319Z,100375.81
2022-12-25T19:15:59.384Z,100382.31
2022-12-25T19:18:44.196Z,100386.09
2022-12-25T19:21:29.347Z,100401.91
2022-12-25T19:24:14.417Z,100409.72
2022-12-25T19:26:59.370Z,100398.00
2022-12-25T19:29:44.634Z,100402.88
2022-12-25T19:32:29.532Z,100406.50
2022-12-25T19:35:14.752Z,100422.84
2022-12-25T19:37:59.696Z,100417.09
2022-12-25T19:40:59.917Z,100418.41
2022-12-25T19:43:47.529Z,100431.09
2022-12-25T19:46:35.347Z,100431.09
2022-12-25T19:49:20.384Z,100437.69
2022-12-25T19:52:05.574Z,100436.88
2022-12-25T19:54:52.389Z,100424.25
2022-12-25T19:57:37.584Z,100432.34
2022-12-25T20:00:22.704Z,100417.59
2022-12-25T20:03:08.753Z,100422.94
2022-12-25T20:05:53.840Z,100420.06
2022-12-25T20:08:38.716Z,100425.84
2022-12-25T20:11:25.850Z,100419.53
2022-12-25T20:14:13.087Z,100422.41
2022-12-25T20:16:58.280Z,100420.41
2022-12-25T20:19:43.933Z,100421.44
2022-12-25T20:22:29.084Z,100429.72
2022-12-25T20:25:14.317Z,100423.09
2022-12-25T20:27:59.414Z,100431.41
2022-12-25T20:30:44.773Z,100420.78
2022-12-25T20:33:29.887Z,100407.19
2022-12-25T20:36:15.213Z,100404.19
2022-12-25T20:39:00.735Z,100420.25
2022-12-25T20:41:47.398Z,100415.16
2022-12-25T20:44:32.195Z,100419.31
2022-12-25T20:47:17.160Z,100421.66
2022-12-25T20:50:02.491Z,100421.19
2022-12-25T20:52:47.659Z,100420.09
2022-12-25T20:55:32.840Z,100428.22
2022-12-25T20:58:18.383Z,100418.56
2022-12-25T21:01:13.627Z,100423.22
2022-12-25T21:03:58.829Z,100419.94
2022-12-25T21:06:43.921Z,100415.50
2022-12-25T21:09:29.162Z,100421.09
2022-12-25T21:12:14.330Z,100430.84
2022-12-25T21:14:59.168Z,100443.72
2022-12-25T21:17:44.503Z,100437.41
2022-12-25T21:20:29.618Z,100435.28
2022-12-25T21:23:15.612Z,100430.81
2022-12-25T21:26:09.369Z,100441.59
2022-12-25T21:28:57.267Z,100444.06
2022-12-25T21:32:00.749Z,100442.53
2022-12-25T21:34:45.889Z,100442.53
2022-12-25T21:37:31.804Z,100449.66
2022-12-25T21:40:16.838Z,100453.63
2022-12-25T21:43:02.083Z,100459.34
2022-12-25T21:45:46.989Z,100448.06
2022-12-25T21:48:33.522Z,100445.00
2022-12-25T21:51:39.989Z,100446.38
2022-12-25T21:54:25.045Z,100456.81
2022-12-25T21:57:09.931Z,100452.44
2022-12-25T21:59:54.758Z,100456.59
2022-12-25T22:02:39.960Z,100468.56
2022-12-25T22:05:43.549Z,100458.66
2022-12-25T22:08:32.581Z,100460.16
2022-12-25T22:11:36.180Z,100456.09
2022-12-25T22:14:50.932Z,100444.72
2022-12-25T22:17:59.497Z,100459.31
2022-12-25T22:20:44.984Z,100470.09
2022-12-25T22:23:29.769Z,100455.91
2022-12-25T22:26:20.628Z,100465.53
2022-12-25T22:29:05.916Z,100471.34
2022-12-25T22:31:51.155Z,100481.56
2022-12-25T22:34:36.941Z,100475.53
2022-12-25T22:37:22.664Z,100489.81
2022-12-25T22:40:09.051Z,100481.16
2022-12-25T22:42:55.812Z,100485.06
2022-12-25T22:45:40.685Z,100484.66
2022-12-25T22:48:26.273Z,100491.78
2022-12-25T22:51:11.386Z,100489.81
2022-12-25T22:54:03.410Z,100483.88
2022-12-25T22:56:50.553Z,100494.56
2022-12-25T22:59:35.887Z,100499.22
2022-12-25T23:02:21.093Z,100494.84
2022-12-25T23:05:06.754Z,100497.03
2022-12-25T23:07:51.894Z,100494.63
2022-12-25T23:10:37.076Z,100499.69
2022-12-25T23:13:40.877Z,100488.78
2022-12-25T23:16:26.178Z,100494.69
2022-12-25T23:19:31.791Z,100498.34
2022-12-25T23:22:35.885Z,100510.28
2022-12-25T23:25:39.761Z,100500.34
2022-12-25T23:28:43.375Z,100494.38
2022-12-25T23:31:32.366Z,100503.72
2022-12-25T23:34:17.431Z,100498.09
2022-12-25T23:37:02.760Z,100491.44
2022-12-25T23:39:49.920Z,100495.38
2022-12-25T23:42:35.360Z,100497.81
2022-12-25T23:45:20.397Z,100499.66
2022-12-25T23:48:05.430Z,100490.38
2022-12-25T23:50:50.407Z,100489.41
2022-12-25T23:53:35.930Z,100494.50
2022-12-25T23:56:21.112Z,100500.72
2022-12-25T23:59:06.539Z,100492.25
